sensor_id;sensor_type;location;lat;lon;timestamp;pressure;altitude;pressure_sealevel;temperature;humidity
46174;BME280;31897;52.420;13.498;2022-07-04T00:01:58;101100;;;21.95829;26.19911
46174;BME280;31897;52.420;13.498;2022-07-04T00:04:59;101100;;;21.98801;26.16168
46174;BME280;31897;52.420;13.498;2022-07-04T00:07:59;101100;;;21.96766;26.20481
46174;BME280;31897;52.420;13.498;2022-07-04T00:11:00;101100;;;21.96798;26.15638
46174;BME280;31897;52.420;13.498;2022-07-04T00:14:01;101100;;;21.99447;26.0525
46174;BME280;31897;52.420;13.498;2022-07-04T00:17:02;101100;;;21.98995;25.98609
46174;BME280;31897;52.420;13.498;2022-07-04T00:20:04;101100;;;21.98478;25.99234
46174;BME280;31897;52.420;13.498;2022-07-04T00:23:07;101100;;;21.93147;26.03671
46174;BME280;31897;52.420;13.498;2022-07-04T00:26:08;101100;;;21.8003;26.06585
46174;BME280;31897;52.420;13.498;2022-07-04T00:29:09;101100;;;21.6785;26.07042
46174;BME280;31897;52.420;13.498;2022-07-04T00:32:10;101100;;;21.60775;26.10331
46174;BME280;31897;52.420;13.498;2022-07-04T00:35:11;101100;;;21.56575;26.12302
46174;BME280;31897;52.420;13.498;2022-07-04T00:38:11;101100;;;21.52278;26.15485
46174;BME280;31897;52.420;13.498;2022-07-04T00:41:12;101100;;;21.4895;26.15609
46174;BME280;31897;52.420;13.498;2022-07-04T00:44:13;101100;;;21.44976;26.15757
46174;BME280;31897;52.420;13.498;2022-07-04T00:47:14;101100;;;21.42779;26.11608
46174;BME280;31897;52.420;13.498;2022-07-04T00:50:15;101100;;;21.4097;26.12884
46174;BME280;31897;52.420;13.498;2022-07-04T00:53:16;101100;;;21.39742;26.10512
46174;BME280;31897;52.420;13.498;2022-07-04T00:56:18;101100;;;21.34993;26.20359
46174;BME280;31897;52.420;13.498;2022-07-04T00:59:20;101100;;;21.34928;26.1734
46174;BME280;31897;52.420;13.498;2022-07-04T01:02:21;101100;;;21.33087;26.18617
46174;BME280;31897;52.420;13.498;2022-07-04T01:05:22;101100;;;21.34024;26.21
46174;BME280;31897;52.420;13.498;2022-07-04T01:08:22;101100;;;21.34799;26.20367
46174;BME280;31897;52.420;13.498;2022-07-04T01:11:24;101100;;;21.31407;26.26536
46174;BME280;31897;52.420;13.498;2022-07-04T01:14:25;101100;;;21.32699;26.25883
46174;BME280;31897;52.420;13.498;2022-07-04T01:17:25;101100;;;21.33087;26.27682
46174;BME280;31897;52.420;13.498;2022-07-04T01:20:33;101100;;;21.33571;26.25246
46174;BME280;31897;52.420;13.498;2022-07-04T01:23:36;101100;;;21.36317;26.34211
46174;BME280;31897;52.420;13.498;2022-07-04T01:26:37;101100;;;21.34864;26.39704
46174;BME280;31897;52.420;13.498;2022-07-04T01:29:38;101100;;;21.32893;26.47632
46174;BME280;31897;52.420;13.498;2022-07-04T01:32:39;101100;;;21.27013;26.49055
46174;BME280;31897;52.420;13.498;2022-07-04T01:35:40;101100;;;21.2207;26.61922
46174;BME280;31897;52.420;13.498;2022-07-04T01:38:42;101100;;;21.12959;26.70707
46174;BME280;31897;52.420;13.498;2022-07-04T01:41:43;101100;;;21.05043;26.78841
46174;BME280;31897;52.420;13.498;2022-07-04T01:44:44;101100;;;21.02814;26.80732
46174;BME280;31897;52.420;13.498;2022-07-04T01:47:45;101100;;;20.9968;26.85071
46174;BME280;31897;52.420;13.498;2022-07-04T01:50:45;101200;;;20.96417;26.91224
46174;BME280;31897;52.420;13.498;2022-07-04T01:53:46;101200;;;20.96514;26.94239
46174;BME280;31897;52.420;13.498;2022-07-04T01:56:47;101200;;;20.94802;26.99733
46174;BME280;31897;52.420;13.498;2022-07-04T01:59:48;101200;;;20.90343;27.0653
46174;BME280;31897;52.420;13.498;2022-07-04T02:02:48;101200;;;20.84043;27.16407
46174;BME280;31897;52.420;13.498;2022-07-04T02:05:49;101200;;;20.77129;27.26303
46174;BME280;31897;52.420;13.498;2022-07-04T02:08:50;101200;;;20.73963;27.33653
46174;BME280;31897;52.420;13.498;2022-07-04T02:11:51;101200;;;20.69408;27.43462
46174;BME280;31897;52.420;13.498;2022-07-04T02:14:52;101200;;;20.65919;27.53233
46174;BME280;31897;52.420;13.498;2022-07-04T02:17:53;101200;;;20.62236;27.5758
46174;BME280;31897;52.420;13.498;2022-07-04T02:20:55;101200;;;20.52253;27.86259
46174;BME280;31897;52.420;13.498;2022-07-04T02:23:56;101200;;;20.49636;27.94184
46174;BME280;31897;52.420;13.498;2022-07-04T02:26:57;101200;;;20.45888;28.1179
46174;BME280;31897;52.420;13.498;2022-07-04T02:29:58;101200;;;20.41042;28.23401
46174;BME280;31897;52.420;13.498;2022-07-04T02:32:58;101200;;;20.38845;28.39143
46174;BME280;31897;52.420;13.498;2022-07-04T02:35:59;101200;;;20.33837;28.53766
46174;BME280;31897;52.420;13.498;2022-07-04T02:39:02;101200;;;20.31156;28.71325
46174;BME280;31897;52.420;13.498;2022-07-04T02:42:03;101200;;;20.23079;28.94469
46174;BME280;31897;52.420;13.498;2022-07-04T02:45:04;101200;;;20.16876;29.13933
46174;BME280;31897;52.420;13.498;2022-07-04T02:48:05;101200;;;20.07959;29.40099
46174;BME280;31897;52.420;13.498;2022-07-04T02:51:06;101200;;;19.97879;29.6688
46174;BME280;31897;52.420;13.498;2022-07-04T02:54:07;101200;;;19.96554;29.81966
46174;BME280;31897;52.420;13.498;2022-07-04T02:57:11;101200;;;19.90933;29.97774
46174;BME280;31897;52.420;13.498;2022-07-04T03:00:15;101200;;;19.86119;30.12352
46174;BME280;31897;52.420;13.498;2022-07-04T03:03:16;101200;;;19.83373;30.29275
46174;BME280;31897;52.420;13.498;2022-07-04T03:06:17;101200;;;19.76168;30.49925
46174;BME280;31897;52.420;13.498;2022-07-04T03:09:18;101200;;;19.71839;30.71696
46174;BME280;31897;52.420;13.498;2022-07-04T03:12:22;101200;;;19.69675;30.76562
46174;BME280;31897;52.420;13.498;2022-07-04T03:15:23;101200;;;19.6709;30.86853
46174;BME280;31897;52.420;13.498;2022-07-04T03:18:24;101200;;;19.62018;30.96606
46174;BME280;31897;52.420;13.498;2022-07-04T03:21:24;101200;;;19.56203;31.10584
46174;BME280;31897;52.420;13.498;2022-07-04T03:24:31;101200;;;19.49289;31.2759
46174;BME280;31897;52.420;13.498;2022-07-04T03:27:33;101200;;;19.4538;31.36102
46174;BME280;31897;52.420;13.498;2022-07-04T03:30:33;101300;;;19.45283;31.39109
46174;BME280;31897;52.420;13.498;2022-07-04T03:33:34;101300;;;19.43667;31.51168
46174;BME280;31897;52.420;13.498;2022-07-04T03:36:38;101300;;;19.40824;31.5965
46174;BME280;31897;52.420;13.498;2022-07-04T03:39:40;101300;;;19.43764;31.64986
46174;BME280;31897;52.420;13.498;2022-07-04T03:42:41;101300;;;19.42537;31.65617
46174;BME280;31897;52.420;13.498;2022-07-04T03:45:42;101300;;;19.42149;31.6803
46174;BME280;31897;52.420;13.498;2022-07-04T03:48:42;101300;;;19.43053;31.71012
46174;BME280;31897;52.420;13.498;2022-07-04T03:51:45;101300;;;19.39403;31.78911
46174;BME280;31897;52.420;13.498;2022-07-04T03:54:46;101300;;;19.42537;31.81239
46174;BME280;31897;52.420;13.498;2022-07-04T03:57:47;101300;;;19.44055;31.84207
46174;BME280;31897;52.420;13.498;2022-07-04T04:00:48;101300;;;19.42827;31.88442
46174;BME280;31897;52.420;13.498;2022-07-04T04:03:49;101300;;;19.41632;31.9568
46174;BME280;31897;52.420;13.498;2022-07-04T04:06:50;101300;;;19.41826;31.99881
46174;BME280;31897;52.420;13.498;2022-07-04T04:09:51;101300;;;19.3937;32.03544
46174;BME280;31897;52.420;13.498;2022-07-04T04:12:51;101300;;;19.36237;32.13229
46174;BME280;31897;52.420;13.498;2022-07-04T04:15:52;101300;;;19.30647;32.21768
46174;BME280;31897;52.420;13.498;2022-07-04T04:18:53;101300;;;19.25995;32.32685
46174;BME280;31897;52.420;13.498;2022-07-04T04:21:54;101300;;;19.17175;32.44894
46174;BME280;31897;52.420;13.498;2022-07-04T04:24:54;101300;;;19.15463;32.53338
46174;BME280;31897;52.420;13.498;2022-07-04T04:28:00;101300;;;19.22506;32.51979
46174;BME280;31897;52.420;13.498;2022-07-04T04:31:01;101300;;;19.28709;32.45234
46174;BME280;31897;52.420;13.498;2022-07-04T04:34:02;101300;;;19.32683;32.45745
46174;BME280;31897;52.420;13.498;2022-07-04T04:37:03;101300;;;19.3517;32.48692
46174;BME280;31897;52.420;13.498;2022-07-04T04:40:04;101300;;;19.37529;32.51643
46174;BME280;31897;52.420;13.498;2022-07-04T04:43:05;101300;;;19.37723;32.56443
46174;BME280;31897;52.420;13.498;2022-07-04T04:46:06;101300;;;19.4034;32.59388
46174;BME280;31897;52.420;13.498;2022-07-04T04:49:14;101300;;;19.48126;32.52606
46174;BME280;31897;52.420;13.498;2022-07-04T04:52:15;101300;;;19.4693;32.52633
46174;BME280;31897;52.420;13.498;2022-07-04T04:55:16;101300;;;19.42343;32.61746
46174;BME280;31897;52.420;13.498;2022-07-04T04:58:17;101300;;;19.39597;32.72018
46174;BME280;31897;52.420;13.498;2022-07-04T05:01:18;101300;;;19.42892;32.74949
46174;BME280;31897;52.420;13.498;2022-07-04T05:04:19;101300;;;19.48869;32.65807
46174;BME280;31897;52.420;13.498;2022-07-04T05:07:20;101300;;;19.49967;32.62778
46174;BME280;31897;52.420;13.498;2022-07-04T05:10:21;101400;;;19.52164;32.57923
46174;BME280;31897;52.420;13.498;2022-07-04T05:13:21;101300;;;19.56719;32.48807
46174;BME280;31897;52.420;13.498;2022-07-04T05:16:22;101300;;;19.63375;32.4445
46174;BME280;31897;52.420;13.498;2022-07-04T05:19:23;101300;;;19.70127;32.42493
46174;BME280;31897;52.420;13.498;2022-07-04T05:22:24;101300;;;19.86701;32.18663
46174;BME280;31897;52.420;13.498;2022-07-04T05:25:25;101400;;;20.14937;31.78285
46174;BME280;31897;52.420;13.498;2022-07-04T05:28:25;101400;;;20.81717;30.91057
46174;BME280;31897;52.420;13.498;2022-07-04T05:31:26;101400;;;21.11505;30.57688
46174;BME280;31897;52.420;13.498;2022-07-04T05:34:27;101400;;;21.04559;30.78389
46174;BME280;31897;52.420;13.498;2022-07-04T05:37:28;101400;;;20.95028;30.87085
46174;BME280;31897;52.420;13.498;2022-07-04T05:40:29;101400;;;20.91054;30.82367
46174;BME280;31897;52.420;13.498;2022-07-04T05:43:30;101400;;;20.95383;30.68381
46174;BME280;31897;52.420;13.498;2022-07-04T05:46:30;101400;;;20.77291;30.81529
46174;BME280;31897;52.420;13.498;2022-07-04T05:49:32;101400;;;20.6902;30.78737
46174;BME280;31897;52.420;13.498;2022-07-04T05:52:33;101400;;;20.77388;30.62237
46174;BME280;31897;52.420;13.498;2022-07-04T05:55:33;101400;;;20.81491;30.53685
46174;BME280;31897;52.420;13.498;2022-07-04T05:58:34;101400;;;20.74545;30.53874
46174;BME280;31897;52.420;13.498;2022-07-04T06:01:35;101400;;;20.78228;30.35085
46174;BME280;31897;52.420;13.498;2022-07-04T06:04:36;101400;;;20.79682;30.24192
46174;BME280;31897;52.420;13.498;2022-07-04T06:07:37;101400;;;20.77517;30.24252
46174;BME280;31897;52.420;13.498;2022-07-04T06:10:38;101400;;;20.75062;30.13469
46174;BME280;31897;52.420;13.498;2022-07-04T06:13:38;101400;;;20.80974;30.03052
46174;BME280;31897;52.420;13.498;2022-07-04T06:16:39;101400;;;20.8259;29.85518
46174;BME280;31897;52.420;13.498;2022-07-04T06:19:40;101400;;;20.8175;29.80115
46174;BME280;31897;52.420;13.498;2022-07-04T06:22:41;101400;;;20.89536;29.69636
46174;BME280;31897;52.420;13.498;2022-07-04T06:25:42;101400;;;20.9687;29.47703
46174;BME280;31897;52.420;13.498;2022-07-04T06:28:43;101400;;;21.02039;29.34275
46174;BME280;31897;52.420;13.498;2022-07-04T06:31:44;101400;;;21.05366;29.14865
46174;BME280;31897;52.420;13.498;2022-07-04T06:34:44;101400;;;21.52213;28.31871
46174;BME280;31897;52.420;13.498;2022-07-04T06:37:45;101400;;;23.62411;25.73547
46174;BME280;31897;52.420;13.498;2022-07-04T06:40:46;101400;;;22.89555;26.40652
46174;BME280;31897;52.420;13.498;2022-07-04T06:43:47;101400;;;22.61479;26.5745
46174;BME280;31897;52.420;13.498;2022-07-04T06:46:47;101400;;;22.35633;26.65059
46174;BME280;31897;52.420;13.498;2022-07-04T06:49:48;101400;;;22.33532;26.37882
46174;BME280;31897;52.420;13.498;2022-07-04T06:52:49;101400;;;23.35304;25.09032
46174;BME280;31897;52.420;13.498;2022-07-04T06:55:50;101400;;;22.84547;25.50484
46174;BME280;31897;52.420;13.498;2022-07-04T06:58:50;101400;;;22.54113;25.60158
46174;BME280;31897;52.420;13.498;2022-07-04T07:01:51;101400;;;22.69653;25.18332
46174;BME280;31897;52.420;13.498;2022-07-04T07:04:54;101400;;;22.36893;25.3841
46174;BME280;31897;52.420;13.498;2022-07-04T07:07:54;101400;;;22.14341;25.22943
46174;BME280;31897;52.420;13.498;2022-07-04T07:10:55;101400;;;22.02549;25.3249
46174;BME280;31897;52.420;13.498;2022-07-04T07:13:56;101400;;;22.0578;25.21464
46174;BME280;31897;52.420;13.498;2022-07-04T07:16:57;101400;;;22.06394;25.05697
46174;BME280;31897;52.420;13.498;2022-07-04T07:19:58;101400;;;21.96346;24.90962
46174;BME280;31897;52.420;13.498;2022-07-04T07:23:01;101400;;;21.81549;24.68556
46174;BME280;31897;52.420;13.498;2022-07-04T07:26:02;101400;;;21.81322;24.5646
46174;BME280;31897;52.420;13.498;2022-07-04T07:29:03;101400;;;21.77349;24.52991
46174;BME280;31897;52.420;13.498;2022-07-04T07:32:04;101400;;;21.68464;24.43673
46174;BME280;31897;52.420;13.498;2022-07-04T07:35:05;101400;;;21.61453;24.56061
46174;BME280;31897;52.420;13.498;2022-07-04T07:38:06;101400;;;21.72793;24.55598
46174;BME280;31897;52.420;13.498;2022-07-04T07:41:07;101400;;;21.87816;24.45903
46174;BME280;31897;52.420;13.498;2022-07-04T07:44:08;101400;;;22.07427;24.35406
46174;BME280;31897;52.420;13.498;2022-07-04T07:47:09;101500;;;22.14535;24.2239
46174;BME280;31897;52.420;13.498;2022-07-04T07:50:09;101500;;;22.25003;23.96504
46174;BME280;31897;52.420;13.498;2022-07-04T07:53:10;101500;;;22.39542;23.89826
46174;BME280;31897;52.420;13.498;2022-07-04T07:56:11;101500;;;22.45196;23.95648
46174;BME280;31897;52.420;13.498;2022-07-04T07:59:12;101500;;;22.5253;23.85636
46174;BME280;31897;52.420;13.498;2022-07-04T08:02:13;101500;;;22.56342;23.84867
46174;BME280;31897;52.420;13.498;2022-07-04T08:05:14;101500;;;22.62158;23.87651
46174;BME280;31897;52.420;13.498;2022-07-04T08:08:14;101500;;;22.60058;23.63482
46174;BME280;31897;52.420;13.498;2022-07-04T08:11:15;101500;;;22.6009;23.42253
46174;BME280;31897;52.420;13.498;2022-07-04T08:14:16;101500;;;22.55276;23.22449
46174;BME280;31897;52.420;13.498;2022-07-04T08:17:17;101500;;;22.32919;22.39161
46174;BME280;31897;52.420;13.498;2022-07-04T08:20:18;101500;;;22.21352;22.20292
46174;BME280;31897;52.420;13.498;2022-07-04T08:23:19;101500;;;22.0956;22.30534
46174;BME280;31897;52.420;13.498;2022-07-04T08:26:21;101500;;;21.99253;22.54031
46174;BME280;31897;52.420;13.498;2022-07-04T08:29:21;101500;;;21.93115;22.4704
46174;BME280;31897;52.420;13.498;2022-07-04T08:32:22;101500;;;21.87558;22.24274
46174;BME280;31897;52.420;13.498;2022-07-04T08:35:23;101500;;;21.82292;22.1422
46174;BME280;31897;52.420;13.498;2022-07-04T08:38:24;101500;;;21.78286;22.02892
46174;BME280;31897;52.420;13.498;2022-07-04T08:41:25;101500;;;21.7793;21.99279
46174;BME280;31897;52.420;13.498;2022-07-04T08:44:27;101500;;;21.74505;21.91565
46174;BME280;31897;52.420;13.498;2022-07-04T08:47:28;101500;;;21.73439;21.98277
46174;BME280;31897;52.420;13.498;2022-07-04T08:50:33;101500;;;21.95958;21.7905
46174;BME280;31897;52.420;13.498;2022-07-04T08:53:34;101500;;;22.43354;21.54978
46174;BME280;31897;52.420;13.498;2022-07-04T08:56:38;101500;;;22.58054;21.4578
46174;BME280;31897;52.420;13.498;2022-07-04T08:59:39;101500;;;22.64096;21.53381
46174;BME280;31897;52.420;13.498;2022-07-04T09:02:40;101500;;;22.8571;21.4506
46174;BME280;31897;52.420;13.498;2022-07-04T09:05:40;101500;;;22.93755;21.386
46174;BME280;31897;52.420;13.498;2022-07-04T09:08:41;101500;;;23.05451;21.3682
46174;BME280;31897;52.420;13.498;2022-07-04T09:11:42;101500;;;22.97826;21.40226
46174;BME280;31897;52.420;13.498;2022-07-04T09:14:43;101500;;;23.00766;21.30365
46174;BME280;31897;52.420;13.498;2022-07-04T09:17:44;101500;;;23.10233;21.28084
46174;BME280;31897;52.420;13.498;2022-07-04T09:20:45;101500;;;23.12268;21.09757
46174;BME280;31897;52.420;13.498;2022-07-04T09:23:47;101500;;;23.27259;20.91395
46174;BME280;31897;52.420;13.498;2022-07-04T09:26:48;101500;;;23.57629;20.70429
46174;BME280;31897;52.420;13.498;2022-07-04T09:29:51;101500;;;24.44217;20.03311
46174;BME280;31897;52.420;13.498;2022-07-04T09:32:53;101500;;;24.69677;19.76377
46174;BME280;31897;52.420;13.498;2022-07-04T09:35:54;101500;;;26.73355;18.05684
46174;BME280;31897;52.420;13.498;2022-07-04T09:39:12;101500;;;26.27863;18.27241
46174;BME280;31897;52.420;13.498;2022-07-04T09:42:13;101500;;;25.67283;18.79547
46174;BME280;31897;52.420;13.498;2022-07-04T09:45:18;101500;;;25.36395;19.2095
46174;BME280;31897;52.420;13.498;2022-07-04T09:48:20;101500;;;25.23859;19.32006
46174;BME280;31897;52.420;13.498;2022-07-04T09:51:35;101500;;;25.15782;19.17172
46174;BME280;31897;52.420;13.498;2022-07-04T09:54:36;101500;;;25.02341;18.8981
46174;BME280;31897;52.420;13.498;2022-07-04T09:57:36;101500;;;25.03795;18.82404
46174;BME280;31897;52.420;13.498;2022-07-04T10:00:38;101500;;;24.94458;18.90849
46174;BME280;31897;52.420;13.498;2022-07-04T10:03:39;101500;;;24.99692;18.42331
46174;BME280;31897;52.420;13.498;2022-07-04T10:06:40;101500;;;26.61013;16.98514
46174;BME280;31897;52.420;13.498;2022-07-04T10:09:41;101500;;;27.09446;16.72336
46174;BME280;31897;52.420;13.498;2022-07-04T10:12:42;101500;;;26.65763;17.21529
46174;BME280;31897;52.420;13.498;2022-07-04T10:15:43;101500;;;26.47508;17.28723
46174;BME280;31897;52.420;13.498;2022-07-04T10:18:44;101500;;;26.56102;17.39261
46174;BME280;31897;52.420;13.498;2022-07-04T10:21:45;101500;;;26.8741;17.01862
46174;BME280;31897;52.420;13.498;2022-07-04T10:24:46;101500;;;26.62596;17.02711
46174;BME280;31897;52.420;13.498;2022-07-04T10:27:47;101500;;;26.35747;16.49149
46174;BME280;31897;52.420;13.498;2022-07-04T10:30:48;101500;;;26.20755;16.61073
46174;BME280;31897;52.420;13.498;2022-07-04T10:33:50;101500;;;26.16135;16.37462
46174;BME280;31897;52.420;13.498;2022-07-04T10:36:51;101500;;;26.12969;16.19891
46174;BME280;31897;52.420;13.498;2022-07-04T10:39:52;101500;;;26.27476;16.09216
46174;BME280;31897;52.420;13.498;2022-07-04T10:42:52;101500;;;26.23986;16.11259
46174;BME280;31897;52.420;13.498;2022-07-04T10:45:53;101500;;;26.33259;16.37656
46174;BME280;31897;52.420;13.498;2022-07-04T10:48:55;101500;;;26.62241;16.36522
46174;BME280;31897;52.420;13.498;2022-07-04T10:52:08;101500;;;26.62661;16.63482
46174;BME280;31897;52.420;13.498;2022-07-04T10:55:10;101500;;;26.1523;16.72427
46174;BME280;31897;52.420;13.498;2022-07-04T10:58:12;101500;;;26.30771;16.54961
46174;BME280;31897;52.420;13.498;2022-07-04T11:01:28;101500;;;26.43469;16.39492
46174;BME280;31897;52.420;13.498;2022-07-04T11:04:46;101500;;;26.43501;16.40103
46174;BME280;31897;52.420;13.498;2022-07-04T11:08:02;101500;;;26.44664;16.41872
46174;BME280;31897;52.420;13.498;2022-07-04T11:11:03;101400;;;26.54745;16.25939
46174;BME280;31897;52.420;13.498;2022-07-04T11:14:29;101400;;;26.59559;16.01736
46174;BME280;31897;52.420;13.498;2022-07-04T11:17:36;101400;;;26.42952;16.09492
46174;BME280;31897;52.420;13.498;2022-07-04T11:20:41;101400;;;26.42629;16.21157
46174;BME280;31897;52.420;13.498;2022-07-04T11:23:48;101400;;;26.43534;16.15586
46174;BME280;31897;52.420;13.498;2022-07-04T11:26:49;101400;;;26.46312;16.28902
46174;BME280;31897;52.420;13.498;2022-07-04T11:29:50;101400;;;25.9746;16.59401
46174;BME280;31897;52.420;13.498;2022-07-04T11:32:51;101400;;;25.72808;16.60259
46174;BME280;31897;52.420;13.498;2022-07-04T11:36:08;101400;;;25.47057;16.83195
46174;BME280;31897;52.420;13.498;2022-07-04T11:39:10;101400;;;25.61952;16.82316
46174;BME280;31897;52.420;13.498;2022-07-04T11:42:11;101400;;;25.89835;16.73323
46174;BME280;31897;52.420;13.498;2022-07-04T11:45:12;101400;;;26.07444;16.67991
46174;BME280;31897;52.420;13.498;2022-07-04T11:48:19;101400;;;25.87638;16.86918
46174;BME280;31897;52.420;13.498;2022-07-04T11:51:20;101400;;;25.42437;16.99976
46174;BME280;31897;52.420;13.498;2022-07-04T11:54:21;101400;;;25.27736;17.16117
46174;BME280;31897;52.420;13.498;2022-07-04T11:57:23;101400;;;25.75554;16.87019
46174;BME280;31897;52.420;13.498;2022-07-04T12:00:25;101400;;;26.04083;16.7064
46174;BME280;31897;52.420;13.498;2022-07-04T12:03:26;101400;;;26.25731;16.60164
46174;BME280;31897;52.420;13.498;2022-07-04T12:06:27;101400;;;26.45828;16.36286
46174;BME280;31897;52.420;13.498;2022-07-04T12:09:28;101400;;;26.34454;16.50452
46174;BME280;31897;52.420;13.498;2022-07-04T12:12:29;101400;;;26.30545;16.52524
46174;BME280;31897;52.420;13.498;2022-07-04T12:15:36;101400;;;26.04794;16.68148
46174;BME280;31897;52.420;13.498;2022-07-04T12:18:37;101400;;;26.1523;16.67527
46174;BME280;31897;52.420;13.498;2022-07-04T12:21:38;101400;;;26.15553;16.48522
46174;BME280;31897;52.420;13.498;2022-07-04T12:24:40;101400;;;26.04697;16.54683
46174;BME280;31897;52.420;13.498;2022-07-04T12:27:40;101400;;;25.87056;16.67367
46174;BME280;31897;52.420;13.498;2022-07-04T12:30:48;101400;;;26.183;16.4162
46174;BME280;31897;52.420;13.498;2022-07-04T12:33:53;101400;;;26.75456;16.22231
46174;BME280;31897;52.420;13.498;2022-07-04T12:36:55;101400;;;26.89058;16.13429
46174;BME280;31897;52.420;13.498;2022-07-04T12:39:56;101400;;;27.07765;15.77302
46174;BME280;31897;52.420;13.498;2022-07-04T12:43:06;101400;;;27.25762;15.6268
46174;BME280;31897;52.420;13.498;2022-07-04T12:46:07;101400;;;27.3119;15.48217
46174;BME280;31897;52.420;13.498;2022-07-04T12:49:13;101400;;;27.58104;15.06585
46174;BME280;31897;52.420;13.498;2022-07-04T12:52:17;101400;;;27.80398;14.87324
46174;BME280;31897;52.420;13.498;2022-07-04T12:55:18;101400;;;28.20528;14.49682
46174;BME280;31897;52.420;13.498;2022-07-04T12:58:19;101400;;;28.11352;14.38584
46174;BME280;31897;52.420;13.498;2022-07-04T13:01:19;101400;;;28.18589;14.36881
46174;BME280;31897;52.420;13.498;2022-07-04T13:04:21;101400;;;28.06796;14.21649
46174;BME280;31897;52.420;13.498;2022-07-04T13:07:22;101400;;;28.14195;14.09469
46174;BME280;31897;52.420;13.498;2022-07-04T13:10:22;101400;;;28.17555;13.89549
46174;BME280;31897;52.420;13.498;2022-07-04T13:13:23;101400;;;28.56748;13.86952
46174;BME280;31897;52.420;13.498;2022-07-04T13:16:24;101400;;;28.77233;13.83743
46174;BME280;31897;52.420;13.498;2022-07-04T13:19:25;101400;;;28.77394;13.53525
46174;BME280;31897;52.420;13.498;2022-07-04T13:22:25;101400;;;29.09866;13.50727
46174;BME280;31897;52.420;13.498;2022-07-04T13:25:26;101400;;;29.39721;13.2217
46174;BME280;31897;52.420;13.498;2022-07-04T13:28:27;101400;;;29.59883;13.14622
46174;BME280;31897;52.420;13.498;2022-07-04T13:31:28;101400;;;29.74843;12.94447
46174;BME280;31897;52.420;13.498;2022-07-04T13:34:28;101400;;;29.04697;13.06658
46174;BME280;31897;52.420;13.498;2022-07-04T13:37:29;101400;;;28.91352;13.07568
46174;BME280;31897;52.420;13.498;2022-07-04T13:40:30;101400;;;29.11611;13.04952
46174;BME280;31897;52.420;13.498;2022-07-04T13:43:31;101400;;;29.57783;12.83883
46174;BME280;31897;52.420;13.498;2022-07-04T13:46:32;101400;;;30.02824;12.52334
46174;BME280;31897;52.420;13.498;2022-07-04T13:49:33;101400;;;30.43892;12.29665
46174;BME280;31897;52.420;13.498;2022-07-04T13:52:34;101400;;;30.84733;11.97675
46174;BME280;31897;52.420;13.498;2022-07-04T13:55:35;101400;;;30.81437;11.65694
46174;BME280;31897;52.420;13.498;2022-07-04T13:58:35;101400;;;30.1339;12.12013
46174;BME280;31897;52.420;13.498;2022-07-04T14:01:37;101400;;;29.95231;12.04638
46174;BME280;31897;52.420;13.498;2022-07-04T14:04:37;101400;;;30.37785;11.68823
46174;BME280;31897;52.420;13.498;2022-07-04T14:07:38;101400;;;30.04472;11.69349
46174;BME280;31897;52.420;13.498;2022-07-04T14:10:39;101400;;;30.34425;11.55447
46174;BME280;31897;52.420;13.498;2022-07-04T14:13:40;101400;;;30.48997;11.35825
46174;BME280;31897;52.420;13.498;2022-07-04T14:16:41;101400;;;30.71647;11.31089
46174;BME280;31897;52.420;13.498;2022-07-04T14:19:41;101400;;;30.90582;10.99347
46174;BME280;31897;52.420;13.498;2022-07-04T14:22:42;101400;;;30.90937;10.85686
46174;BME280;31897;52.420;13.498;2022-07-04T14:25:43;101400;;;30.98756;10.9069
46174;BME280;31897;52.420;13.498;2022-07-04T14:28:44;101400;;;31.2215;10.90832
46174;BME280;31897;52.420;13.498;2022-07-04T14:31:45;101400;;;31.58952;10.70123
46174;BME280;31897;52.420;13.498;2022-07-04T14:34:45;101400;;;31.9666;10.59873
46174;BME280;31897;52.420;13.498;2022-07-04T14:37:46;101400;;;32.1162;10.3763
46174;BME280;31897;52.420;13.498;2022-07-04T14:40:47;101400;;;32.07517;10.11835
46174;BME280;31897;52.420;13.498;2022-07-04T14:43:48;101400;;;31.975;10.06377
46174;BME280;31897;52.420;13.498;2022-07-04T14:46:48;101400;;;31.76271;9.98041
46174;BME280;31897;52.420;13.498;2022-07-04T14:49:49;101400;;;31.42506;10.31624
46174;BME280;31897;52.420;13.498;2022-07-04T14:52:50;101300;;;31.72329;10.13865
46174;BME280;31897;52.420;13.498;2022-07-04T14:55:51;101300;;;31.83994;10.02427
46174;BME280;31897;52.420;13.498;2022-07-04T14:58:52;101300;;;31.81474;9.95163
46174;BME280;31897;52.420;13.498;2022-07-04T15:01:53;101300;;;31.70488;9.87921
46174;BME280;31897;52.420;13.498;2022-07-04T15:04:53;101300;;;31.63864;9.95254